Guanaja, Honduras
Current Conditions -  °F | °C
As of 1:00 AM on Friday 19 Dec 2014 (Local Time) from MHLC Reporting Station
Broken Clouds Broken Clouds  
Wind Chill: 70°   Ceiling: 8000
Heat Index: 70°   Visibility: 6mi
Dew Point: 68°   Wind: 3mph
Humidity: 94%   Direction: 190°S
Pressure: 29.94"   Gusts: NA
Location:  16.43°N, 85.88°W
Report Text: MHLC 190700Z 19003KT 9999 SCT022 BKN080 21/20 Q1014 A2995NOSIG
Loading
Personal Weather Stations






























Interactive Weather Map New forecast layout! Learn more

10-Day Weather Forecast

Advertisements
Track Severe Weather on mobile